Time;durP1;ratioP1;P1;durP2;ratioP2;P2;SDS_P1;SDS_P2;PMS_P1;PMS_P2;Temp;Humidity;BMP_temperature;BMP_pressure;BME280_temperature;BME280_humidity;BME280_pressure;Samples;Min_cycle;Max_cycle;Signal;HPM_P1;HPM_P2
2023/03/30 00:01:18;;;;;;;2.75;1.30;;;11.00;99.90;;;;;;5039555;28;20017;-66
2023/03/30 00:03:45;;;;;;;7.47;1.50;;;11.00;99.90;;;;;;5043489;28;20039;-66
2023/03/30 00:06:19;;;;;;;2.92;1.27;;;11.00;99.90;;;;;;5037818;28;20029;-65
2023/03/30 00:08:45;;;;;;;4.45;2.08;;;11.10;99.90;;;;;;5037590;28;20033;-65
2023/03/30 00:11:14;;;;;;;10.93;1.70;;;11.10;99.90;;;;;;5041037;28;20065;-65
2023/03/30 00:13:41;;;;;;;2.67;1.20;;;11.10;99.90;;;;;;5045807;28;20025;-66
2023/03/30 00:16:09;;;;;;;3.92;2.00;;;11.10;99.90;;;;;;5038107;28;20021;-65
2023/03/30 00:18:36;;;;;;;3.22;0.95;;;11.10;99.90;;;;;;5041521;28;20031;-66
2023/03/30 00:21:02;;;;;;;6.43;1.80;;;11.10;99.90;;;;;;5045915;28;20060;-66
2023/03/30 00:23:30;;;;;;;2.55;1.58;;;11.10;99.90;;;;;;5038426;28;20033;-66
2023/03/30 00:25:56;;;;;;;5.70;2.17;;;11.10;99.90;;;;;;5026583;28;20044;-65
2023/03/30 00:28:22;;;;;;;5.45;1.45;;;11.10;99.90;;;;;;5041790;28;20048;-65
2023/03/30 00:30:48;;;;;;;4.13;1.50;;;11.10;99.90;;;;;;5041817;28;20033;-64
2023/03/30 00:33:14;;;;;;;4.43;1.25;;;11.00;99.90;;;;;;5039218;28;20082;-65
2023/03/30 00:35:40;;;;;;;3.13;1.20;;;11.00;99.90;;;;;;5045971;28;20116;-66
2023/03/30 00:38:05;;;;;;;9.73;1.88;;;11.00;99.90;;;;;;5038320;28;20462;-66
2023/03/30 00:40:32;;;;;;;4.50;1.60;;;11.10;99.90;;;;;;5022768;28;20025;-66
2023/03/30 00:43:04;;;;;;;11.43;2.55;;;11.10;99.90;;;;;;5041945;28;20028;-65
2023/03/30 00:45:31;;;;;;;5.68;1.65;;;11.10;99.90;;;;;;5047826;28;20029;-65
2023/03/30 00:48:04;;;;;;;5.70;1.38;;;11.00;99.90;;;;;;5042555;28;20052;-65
2023/03/30 00:51:02;;;;;;;7.57;1.50;;;11.00;99.90;;;;;;5044603;28;20548;-66
2023/03/30 00:53:38;;;;;;;6.30;1.65;;;11.00;99.90;;;;;;5039075;28;20045;-65
2023/03/30 00:56:06;;;;;;;2.95;1.48;;;11.00;99.90;;;;;;5040617;28;20138;-66
2023/03/30 00:58:33;;;;;;;2.75;1.27;;;11.00;99.90;;;;;;5045237;28;20390;-65
2023/03/30 01:01:01;;;;;;;3.88;1.40;;;11.10;99.90;;;;;;5038892;28;20025;-66
2023/03/30 01:03:37;;;;;;;5.55;1.67;;;11.20;99.90;;;;;;5044174;28;20112;-66
2023/03/30 01:06:06;;;;;;;7.03;1.77;;;11.30;99.90;;;;;;5046580;28;20025;-65
2023/03/30 01:08:32;;;;;;;4.25;1.65;;;11.30;99.90;;;;;;5046030;28;20091;-66
2023/03/30 01:11:03;;;;;;;3.95;1.13;;;11.30;99.90;;;;;;5046357;28;20044;-66
2023/03/30 01:13:33;;;;;;;6.03;1.73;;;11.40;99.90;;;;;;5049359;28;20095;-65
2023/03/30 01:16:49;;;;;;;4.53;1.73;;;11.50;99.90;;;;;;5044149;28;20363;-65
2023/03/30 01:19:42;;;;;;;8.15;1.13;;;11.60;99.90;;;;;;5010957;28;20057;-65
2023/03/30 01:22:39;;;;;;;3.05;0.98;;;11.60;99.90;;;;;;5050866;28;20017;-65
2023/03/30 01:25:32;;;;;;;3.13;1.20;;;11.70;99.90;;;;;;5029604;28;20053;-65
2023/03/30 01:28:08;;;;;;;4.65;1.40;;;11.80;99.90;;;;;;5041235;28;20365;-65
2023/03/30 01:30:49;;;;;;;4.47;1.05;;;11.90;99.90;;;;;;5047163;28;20044;-65
2023/03/30 01:33:53;;;;;;;5.07;1.42;;;12.00;99.90;;;;;;5043778;28;20064;-66
2023/03/30 01:36:33;;;;;;;5.30;1.30;;;12.20;99.90;;;;;;5039583;28;20510;-65
2023/03/30 01:39:40;;;;;;;3.67;1.20;;;12.30;99.90;;;;;;5041921;28;20287;-67
2023/03/30 01:42:18;;;;;;;5.13;1.65;;;12.40;99.90;;;;;;5035804;28;20025;-67
2023/03/30 01:45:03;;;;;;;5.60;1.48;;;12.40;99.90;;;;;;5038484;28;20025;-67
2023/03/30 01:47:37;;;;;;;12.68;2.05;;;12.50;99.90;;;;;;5035074;28;20121;-64
2023/03/30 01:50:19;;;;;;;5.25;1.65;;;12.50;99.90;;;;;;5035721;28;20021;-67
2023/03/30 01:52:59;;;;;;;3.85;1.30;;;12.60;99.90;;;;;;5034061;28;20033;-67
2023/03/30 01:55:43;;;;;;;8.75;2.35;;;12.60;99.90;;;;;;5038437;28;20620;-64
2023/03/30 01:58:11;;;;;;;10.02;1.60;;;12.60;99.90;;;;;;5035653;28;20098;-65
2023/03/30 02:00:40;;;;;;;4.82;1.70;;;12.60;99.90;;;;;;5036881;28;20029;-65
2023/03/30 02:03:31;;;;;;;3.97;1.40;;;12.60;99.90;;;;;;5035338;28;20052;-67
2023/03/30 02:06:37;;;;;;;6.68;1.77;;;12.70;99.90;;;;;;5036909;28;20041;-68
2023/03/30 02:09:06;;;;;;;4.20;1.58;;;12.60;99.90;;;;;;5026867;28;20028;-65
2023/03/30 02:11:33;;;;;;;7.80;1.95;;;12.60;99.90;;;;;;5035901;28;20041;-67
2023/03/30 02:14:01;;;;;;;6.38;1.85;;;12.60;99.90;;;;;;5037341;28;20399;-64
2023/03/30 02:16:48;;;;;;;5.22;2.40;;;12.70;99.90;;;;;;5030761;28;20032;-65
2023/03/30 02:19:15;;;;;;;4.53;1.75;;;12.70;99.90;;;;;;5034238;28;20024;-65
2023/03/30 02:21:42;;;;;;;6.07;2.72;;;12.80;99.90;;;;;;5032985;28;20075;-68
2023/03/30 02:24:18;;;;;;;3.15;1.50;;;12.80;99.90;;;;;;5035747;28;20029;-67
2023/03/30 02:26:49;;;;;;;7.47;1.77;;;12.80;99.90;;;;;;5019702;28;20136;-65
2023/03/30 02:29:16;;;;;;;4.30;1.77;;;12.80;99.90;;;;;;5030408;28;20038;-67
2023/03/30 02:31:47;;;;;;;6.53;1.20;;;12.90;99.90;;;;;;5030573;28;20164;-69
2023/03/30 02:34:21;;;;;;;5.90;2.15;;;12.80;99.90;;;;;;5032899;28;20075;-67
2023/03/30 02:37:31;;;;;;;7.95;1.75;;;12.80;99.90;;;;;;5027158;28;21580;-67
2023/03/30 02:40:28;;;;;;;7.55;1.75;;;12.80;99.90;;;;;;5032832;28;20908;-68
2023/03/30 02:43:18;;;;;;;10.02;1.98;;;12.80;99.90;;;;;;5030694;28;20028;-66
2023/03/30 02:46:01;;;;;;;4.43;1.50;;;12.80;99.90;;;;;;5027689;28;20421;-68
2023/03/30 02:49:19;;;;;;;13.82;1.85;;;12.80;99.90;;;;;;5029993;28;20040;-64
2023/03/30 02:51:53;;;;;;;9.23;1.40;;;12.80;99.90;;;;;;4999310;28;20112;-68
2023/03/30 02:54:24;;;;;;;10.98;1.67;;;12.90;99.90;;;;;;5027553;28;20055;-68
2023/03/30 02:56:57;;;;;;;6.03;1.67;;;12.80;99.90;;;;;;5031108;28;20013;-68
2023/03/30 02:59:33;;;;;;;5.18;1.63;;;12.80;99.90;;;;;;5033615;28;20021;-65
2023/03/30 03:02:16;;;;;;;8.25;2.08;;;12.70;99.90;;;;;;5036198;28;20110;-68
2023/03/30 03:04:45;;;;;;;5.53;1.80;;;12.70;99.90;;;;;;5029657;28;20039;-67
2023/03/30 03:07:11;;;;;;;7.53;2.03;;;12.60;99.90;;;;;;5034710;28;20074;-65
2023/03/30 03:09:37;;;;;;;7.20;1.30;;;12.60;99.90;;;;;;5035591;28;20028;-65
2023/03/30 03:12:03;;;;;;;6.55;1.55;;;12.60;99.90;;;;;;5033552;28;20025;-67
2023/03/30 03:14:29;;;;;;;11.23;1.60;;;12.60;99.90;;;;;;5036455;28;20032;-68
2023/03/30 03:16:55;;;;;;;4.75;1.70;;;12.60;99.90;;;;;;5034766;28;20228;-68
2023/03/30 03:19:21;;;;;;;7.75;1.50;;;12.60;99.90;;;;;;5033394;28;20579;-68
2023/03/30 03:21:47;;;;;;;4.25;1.65;;;12.70;99.90;;;;;;5032851;28;20068;-67
2023/03/30 03:24:16;;;;;;;8.32;1.33;;;12.70;99.90;;;;;;5037184;28;20957;-65
2023/03/30 03:26:42;;;;;;;5.03;1.75;;;12.70;99.90;;;;;;5018060;28;20521;-65
2023/03/30 03:29:08;;;;;;;6.55;2.80;;;12.80;99.90;;;;;;5032746;28;20039;-65
2023/03/30 03:31:34;;;;;;;10.35;2.05;;;12.80;99.90;;;;;;5034881;28;20039;-65
2023/03/30 03:34:00;;;;;;;9.48;2.67;;;12.80;99.90;;;;;;5030789;28;20037;-67
2023/03/30 03:36:26;;;;;;;5.28;1.77;;;12.90;99.90;;;;;;5037030;28;20091;-68
2023/03/30 03:38:52;;;;;;;6.35;2.28;;;12.80;99.90;;;;;;5031495;28;20025;-68
2023/03/30 03:41:17;;;;;;;13.35;2.33;;;12.80;99.90;;;;;;5033391;28;20410;-68
2023/03/30 03:43:43;;;;;;;4.43;2.03;;;12.80;99.90;;;;;;5032886;28;20575;-64
2023/03/30 03:46:09;;;;;;;19.60;3.78;;;12.80;99.90;;;;;;5032219;28;20036;-65
2023/03/30 03:48:34;;;;;;;6.47;2.55;;;12.90;99.90;;;;;;5032625;28;20043;-67
2023/03/30 03:51:00;;;;;;;6.40;1.45;;;12.90;99.90;;;;;;5036500;28;20478;-67
2023/03/30 03:53:27;;;;;;;8.57;1.90;;;12.90;99.90;;;;;;5033241;28;20021;-67
2023/03/30 03:55:53;;;;;;;8.98;3.22;;;13.00;99.90;;;;;;5033483;28;20158;-68
2023/03/30 03:58:20;;;;;;;7.70;2.45;;;12.90;99.90;;;;;;5034129;28;20032;-68
2023/03/30 04:00:46;;;;;;;8.23;1.75;;;12.80;99.90;;;;;;5033296;28;20445;-64
2023/03/30 04:03:12;;;;;;;7.95;2.58;;;12.80;99.90;;;;;;5032042;28;20043;-68
2023/03/30 04:05:38;;;;;;;6.38;2.13;;;12.80;99.90;;;;;;5031568;28;20033;-65
2023/03/30 04:08:04;;;;;;;14.65;3.17;;;12.90;99.90;;;;;;5036072;28;20028;-65
2023/03/30 04:10:30;;;;;;;14.18;2.80;;;12.80;99.90;;;;;;5034403;28;20447;-67
2023/03/30 04:12:56;;;;;;;8.52;3.08;;;12.80;99.90;;;;;;5034265;28;20120;-68
2023/03/30 04:15:23;;;;;;;6.68;2.63;;;12.70;99.90;;;;;;5037947;28;20017;-65
2023/03/30 04:17:49;;;;;;;6.15;1.77;;;12.70;99.90;;;;;;5029984;28;20070;-67
2023/03/30 04:20:16;;;;;;;3.70;1.80;;;12.70;99.90;;;;;;5032737;28;20032;-67
2023/03/30 04:22:44;;;;;;;15.40;2.33;;;12.70;99.90;;;;;;5031777;28;20032;-68
2023/03/30 04:25:13;;;;;;;6.55;1.98;;;12.70;99.90;;;;;;5018733;28;20049;-67
2023/03/30 04:27:41;;;;;;;6.40;1.83;;;12.70;99.90;;;;;;5028664;28;20419;-65
2023/03/30 04:30:09;;;;;;;9.60;2.60;;;12.70;99.90;;;;;;5025161;28;20025;-64
2023/03/30 04:32:37;;;;;;;9.40;2.10;;;12.80;99.90;;;;;;5035309;28;20025;-69
2023/03/30 04:35:05;;;;;;;6.60;2.05;;;12.80;99.90;;;;;;5030326;28;20040;-65
2023/03/30 04:37:31;;;;;;;7.93;2.05;;;12.80;99.90;;;;;;5031763;28;20033;-68
2023/03/30 04:40:01;;;;;;;9.07;1.85;;;12.80;99.90;;;;;;5033577;28;20116;-68
2023/03/30 04:42:33;;;;;;;12.02;2.85;;;12.90;99.90;;;;;;5033654;28;20044;-67
2023/03/30 04:45:02;;;;;;;9.80;2.33;;;12.90;99.90;;;;;;5033549;28;20130;-68
2023/03/30 04:47:28;;;;;;;11.18;2.22;;;13.00;99.90;;;;;;5035694;28;20040;-67
2023/03/30 04:49:54;;;;;;;11.68;2.42;;;13.00;99.90;;;;;;5032781;28;20029;-67
2023/03/30 04:52:19;;;;;;;10.93;2.25;;;13.00;99.90;;;;;;5034105;28;20028;-67
2023/03/30 04:54:45;;;;;;;7.10;2.25;;;13.10;99.90;;;;;;5032400;28;20041;-68
2023/03/30 04:57:14;;;;;;;9.40;2.15;;;13.10;99.90;;;;;;5028637;28;20147;-66
2023/03/30 04:59:41;;;;;;;12.57;2.80;;;13.10;99.90;;;;;;5033030;28;20023;-67
2023/03/30 05:02:07;;;;;;;7.72;2.85;;;13.10;99.90;;;;;;5036852;28;20384;-67
2023/03/30 05:04:33;;;;;;;7.53;2.30;;;13.20;99.90;;;;;;5038575;28;20047;-67
2023/03/30 05:07:00;;;;;;;6.50;1.38;;;13.10;99.90;;;;;;5043119;28;20486;-67
2023/03/30 05:09:26;;;;;;;13.30;3.33;;;13.10;99.90;;;;;;5045195;28;20398;-67
2023/03/30 05:11:51;;;;;;;11.60;3.30;;;13.10;99.90;;;;;;5041370;28;20033;-66
2023/03/30 05:14:17;;;;;;;8.07;2.55;;;13.10;99.90;;;;;;5036882;28;20036;-66
2023/03/30 05:16:43;;;;;;;10.32;2.67;;;13.10;99.90;;;;;;5044197;28;20110;-67
2023/03/30 05:19:08;;;;;;;8.30;2.22;;;13.10;99.90;;;;;;5037617;28;20021;-67
2023/03/30 05:21:34;;;;;;;9.70;2.13;;;13.00;99.90;;;;;;5036537;28;20043;-67
2023/03/30 05:24:00;;;;;;;7.10;2.88;;;13.00;99.90;;;;;;5037158;28;20037;-67
2023/03/30 05:26:26;;;;;;;5.25;2.03;;;13.10;99.90;;;;;;5020190;28;20056;-67
2023/03/30 05:28:53;;;;;;;8.13;2.40;;;13.10;99.90;;;;;;5036664;28;20111;-66
2023/03/30 05:31:18;;;;;;;9.75;2.42;;;13.10;99.90;;;;;;5035887;28;20032;-67
2023/03/30 05:33:45;;;;;;;7.93;2.42;;;13.10;99.90;;;;;;5034070;28;20028;-67
2023/03/30 05:36:11;;;;;;;7.90;2.70;;;13.10;99.90;;;;;;5035756;28;20021;-67
2023/03/30 05:38:36;;;;;;;8.05;2.55;;;13.10;99.90;;;;;;5035678;28;20025;-67
2023/03/30 05:41:05;;;;;;;6.28;2.28;;;13.10;99.90;;;;;;5032805;28;20029;-67
2023/03/30 05:43:32;;;;;;;7.40;2.20;;;13.10;99.90;;;;;;5035147;28;20033;-67
2023/03/30 05:45:58;;;;;;;12.60;2.30;;;13.10;99.90;;;;;;5037997;28;20021;-67
2023/03/30 05:48:24;;;;;;;6.85;1.83;;;13.00;99.90;;;;;;5044645;28;20033;-67
2023/03/30 05:50:50;;;;;;;5.63;2.30;;;13.00;99.90;;;;;;5046673;28;20565;-67
2023/03/30 05:53:16;;;;;;;11.23;2.35;;;13.00;99.90;;;;;;5047994;28;20037;-67
2023/03/30 05:55:46;;;;;;;13.68;3.78;;;13.00;99.90;;;;;;5039582;28;20030;-67
2023/03/30 05:58:12;;;;;;;9.23;2.63;;;13.00;99.90;;;;;;5047079;28;20109;-67
2023/03/30 06:00:40;;;;;;;10.05;2.35;;;13.00;99.90;;;;;;5044357;28;20036;-66
2023/03/30 06:03:06;;;;;;;14.77;4.00;;;13.00;99.90;;;;;;5043580;28;20063;-67
2023/03/30 06:05:34;;;;;;;8.65;2.85;;;13.10;99.90;;;;;;5045905;28;20021;-68
2023/03/30 06:07:59;;;;;;;7.95;2.70;;;13.10;99.90;;;;;;5048426;28;20032;-68
2023/03/30 06:10:26;;;;;;;6.65;2.03;;;13.10;99.90;;;;;;5039422;28;20029;-67
2023/03/30 06:12:52;;;;;;;9.90;2.70;;;13.00;99.90;;;;;;5045505;28;20021;-68
2023/03/30 06:15:17;;;;;;;11.63;2.78;;;13.00;99.90;;;;;;5046210;28;20021;-67
2023/03/30 06:17:43;;;;;;;9.48;2.95;;;13.00;99.90;;;;;;5041750;28;20025;-67
2023/03/30 06:20:12;;;;;;;9.73;2.17;;;13.00;99.90;;;;;;5041194;28;20399;-68
2023/03/30 06:22:42;;;;;;;9.15;2.55;;;13.00;99.90;;;;;;5040695;28;20037;-67
2023/03/30 06:25:09;;;;;;;7.15;2.60;;;13.00;99.90;;;;;;5024083;28;20053;-67
2023/03/30 06:27:36;;;;;;;7.00;2.60;;;13.10;99.90;;;;;;5042108;28;20025;-67
2023/03/30 06:30:02;;;;;;;6.95;2.63;;;13.10;99.90;;;;;;5044602;28;20057;-68
2023/03/30 06:32:28;;;;;;;8.45;2.28;;;13.10;99.90;;;;;;5037289;28;20569;-67
2023/03/30 06:34:53;;;;;;;13.70;2.75;;;13.10;99.90;;;;;;5046673;28;20030;-67
2023/03/30 06:37:20;;;;;;;8.68;2.50;;;13.20;99.90;;;;;;5049578;28;20103;-68
2023/03/30 06:39:45;;;;;;;10.48;2.72;;;13.20;99.90;;;;;;5042992;28;20398;-67
2023/03/30 06:42:11;;;;;;;9.55;2.30;;;13.20;99.90;;;;;;5039197;28;20030;-68
2023/03/30 06:44:37;;;;;;;11.13;2.85;;;13.20;99.90;;;;;;5039132;28;20553;-68
2023/03/30 06:47:04;;;;;;;12.35;2.75;;;13.20;99.90;;;;;;5041395;28;20025;-68
2023/03/30 06:49:30;;;;;;;16.27;3.15;;;13.20;99.90;;;;;;5037659;28;20110;-67
2023/03/30 06:51:56;;;;;;;12.52;2.63;;;13.20;99.90;;;;;;5049472;28;20068;-67
2023/03/30 06:54:23;;;;;;;12.07;2.90;;;13.20;99.90;;;;;;5043618;28;20034;-68
2023/03/30 06:56:49;;;;;;;10.60;2.90;;;13.30;99.90;;;;;;5038917;28;20036;-67
2023/03/30 06:59:15;;;;;;;6.05;2.25;;;13.30;99.90;;;;;;5048540;28;20017;-67
2023/03/30 07:01:41;;;;;;;6.80;2.00;;;13.40;99.90;;;;;;5042548;28;20043;-67
2023/03/30 07:04:08;;;;;;;9.27;2.28;;;13.40;99.90;;;;;;5046542;28;20037;-68
2023/03/30 07:06:33;;;;;;;6.32;2.53;;;13.40;99.90;;;;;;5045811;28;20048;-67
2023/03/30 07:08:59;;;;;;;7.35;2.65;;;13.40;99.90;;;;;;5048778;28;20060;-67
2023/03/30 07:11:25;;;;;;;9.40;2.55;;;13.50;99.90;;;;;;5044076;28;20036;-68
2023/03/30 07:13:51;;;;;;;10.52;2.83;;;13.60;99.90;;;;;;5043228;28;20095;-67
2023/03/30 07:16:16;;;;;;;7.10;2.17;;;13.60;99.90;;;;;;5050031;28;20025;-67
2023/03/30 07:18:42;;;;;;;8.25;2.58;;;13.60;99.90;;;;;;5049772;28;20022;-67
2023/03/30 07:21:08;;;;;;;4.07;1.67;;;13.70;99.90;;;;;;5041160;28;20029;-67
2023/03/30 07:23:34;;;;;;;6.90;2.28;;;13.70;99.90;;;;;;5048358;28;20079;-67
2023/03/30 07:26:00;;;;;;;7.93;2.25;;;13.70;99.90;;;;;;5021440;28;20548;-67
2023/03/30 07:28:26;;;;;;;9.77;2.53;;;13.80;99.90;;;;;;5046784;28;20028;-67
2023/03/30 07:30:51;;;;;;;13.73;3.33;;;13.80;99.90;;;;;;5036861;28;20045;-67
2023/03/30 07:33:17;;;;;;;8.75;2.20;;;13.80;99.90;;;;;;5047166;28;20452;-67
2023/03/30 07:35:44;;;;;;;5.35;2.30;;;13.90;99.90;;;;;;5044476;28;20032;-67
2023/03/30 07:38:11;;;;;;;8.30;2.53;;;14.10;99.90;;;;;;5050965;28;20021;-67
2023/03/30 07:40:37;;;;;;;6.32;2.30;;;14.30;99.90;;;;;;5039402;28;20418;-67
2023/03/30 07:43:03;;;;;;;4.75;1.88;;;14.50;99.90;;;;;;5038289;28;20025;-67
2023/03/30 07:45:28;;;;;;;7.95;2.10;;;14.90;99.90;;;;;;5043064;28;20082;-67
2023/03/30 07:47:54;;;;;;;9.32;2.53;;;15.30;99.90;;;;;;5042063;28;20037;-68
2023/03/30 07:50:20;;;;;;;7.75;3.63;;;15.50;99.90;;;;;;5038415;28;20036;-67
2023/03/30 07:52:46;;;;;;;11.30;3.13;;;16.00;99.90;;;;;;5046311;28;20037;-68
2023/03/30 07:55:11;;;;;;;13.82;3.08;;;16.40;99.90;;;;;;5046262;28;20100;-68
2023/03/30 07:57:37;;;;;;;9.13;2.67;;;16.50;99.90;;;;;;5039974;28;20060;-68
2023/03/30 08:00:09;;;;;;;7.28;2.17;;;16.50;99.90;;;;;;5046322;28;20029;-67
2023/03/30 08:02:35;;;;;;;8.77;2.30;;;16.60;99.90;;;;;;5041874;28;20021;-67
2023/03/30 08:05:01;;;;;;;8.73;1.98;;;16.50;99.90;;;;;;5041477;28;20048;-68
2023/03/30 08:07:27;;;;;;;6.47;1.95;;;16.30;99.90;;;;;;5038986;28;20372;-67
2023/03/30 08:09:53;;;;;;;7.80;2.58;;;16.10;99.90;;;;;;5037939;28;20025;-67
2023/03/30 08:12:19;;;;;;;15.27;1.88;;;16.00;99.90;;;;;;5041476;28;20108;-68
2023/03/30 08:14:45;;;;;;;9.85;2.28;;;15.90;99.90;;;;;;5045346;28;20398;-68
2023/03/30 08:17:11;;;;;;;8.38;2.85;;;15.90;99.90;;;;;;5046754;28;20017;-67
2023/03/30 08:19:36;;;;;;;3.65;1.90;;;16.10;99.90;;;;;;5051268;28;20108;-66
2023/03/30 08:22:02;;;;;;;6.20;2.33;;;16.00;99.90;;;;;;5042479;28;20108;-67
2023/03/30 08:24:28;;;;;;;4.68;1.95;;;15.80;99.90;;;;;;5039974;28;20047;-68
2023/03/30 08:26:54;;;;;;;4.65;2.08;;;15.70;99.90;;;;;;5033455;28;20040;-67
2023/03/30 08:29:20;;;;;;;5.38;1.50;;;15.40;99.90;;;;;;5043084;28;20087;-67
2023/03/30 08:31:46;;;;;;;8.23;2.47;;;15.20;99.90;;;;;;5051194;28;20037;-67
2023/03/30 08:34:11;;;;;;;14.70;2.75;;;15.10;99.90;;;;;;5047364;28;20029;-67
2023/03/30 08:36:37;;;;;;;3.67;2.08;;;15.10;99.90;;;;;;5051867;28;20032;-67
2023/03/30 08:39:03;;;;;;;4.63;2.50;;;15.10;99.90;;;;;;5052350;28;20036;-67
2023/03/30 08:41:30;;;;;;;8.93;2.15;;;15.20;99.90;;;;;;5047625;28;20048;-67
2023/03/30 08:44:27;;;;;;;5.82;2.28;;;15.20;99.90;;;;;;5041405;28;20025;-68
2023/03/30 08:46:53;;;;;;;3.92;1.58;;;15.10;99.90;;;;;;5041639;28;20040;-68
2023/03/30 08:49:20;;;;;;;7.72;1.98;;;15.00;99.90;;;;;;5051034;28;20021;-67
2023/03/30 08:51:49;;;;;;;3.45;1.23;;;15.00;99.90;;;;;;5050864;28;20108;-67
2023/03/30 08:54:17;;;;;;;6.88;1.65;;;14.90;99.90;;;;;;5039329;28;20021;-68
2023/03/30 08:56:57;;;;;;;3.97;1.23;;;15.00;99.90;;;;;;5048209;28;20608;-67
2023/03/30 08:59:22;;;;;;;2.65;1.27;;;15.00;99.90;;;;;;5037044;28;20400;-68
2023/03/30 09:02:02;;;;;;;6.78;1.38;;;15.10;99.90;;;;;;5046063;28;20025;-68
2023/03/30 09:04:36;;;;;;;6.72;1.70;;;15.20;99.90;;;;;;5043555;28;20502;-67
2023/03/30 09:07:15;;;;;;;5.95;1.48;;;15.30;99.90;;;;;;5044190;28;20533;-67
2023/03/30 09:09:44;;;;;;;3.90;2.08;;;15.40;99.90;;;;;;5044100;28;20029;-67
2023/03/30 09:12:36;;;;;;;3.55;1.25;;;15.50;99.90;;;;;;5049805;28;20032;-68
2023/03/30 09:15:18;;;;;;;7.22;1.75;;;15.50;99.90;;;;;;5044797;23;20570;-62
2023/03/30 09:17:52;;;;;;;4.15;0.95;;;15.60;99.90;;;;;;4960229;28;20488;-63
2023/03/30 09:20:23;;;;;;;3.33;1.10;;;16.10;99.90;;;;;;4966167;28;20028;-62
2023/03/30 09:22:50;;;;;;;5.07;1.38;;;16.50;99.90;;;;;;4963774;28;20030;-62
2023/03/30 09:25:54;;;;;;;3.90;1.15;;;16.80;99.90;;;;;;4966659;28;20042;-63
2023/03/30 09:28:32;;;;;;;3.17;1.25;;;17.00;99.90;;;;;;4966535;28;20042;-64
2023/03/30 09:31:20;;;;;;;2.03;1.30;;;17.00;99.90;;;;;;4971076;28;20113;-64
2023/03/30 09:34:18;;;;;;;3.70;1.00;;;16.70;99.90;;;;;;4956626;28;20066;-63
2023/03/30 09:37:03;;;;;;;6.53;1.23;;;16.70;99.90;;;;;;4956973;28;20023;-63
2023/03/30 09:39:30;;;;;;;2.75;1.20;;;16.50;99.90;;;;;;4967209;28;20124;-63
2023/03/30 09:42:34;;;;;;;4.35;1.23;;;16.50;99.90;;;;;;4961668;28;20035;-64
2023/03/30 09:45:06;;;;;;;5.80;0.98;;;16.40;99.90;;;;;;4956823;28;20023;-65
2023/03/30 09:47:37;;;;;;;4.05;1.52;;;16.20;99.90;;;;;;4968012;28;20039;-64
2023/03/30 09:50:15;;;;;;;4.50;1.30;;;16.20;99.90;;;;;;4969497;28;20062;-63
2023/03/30 09:53:03;;;;;;;7.53;1.20;;;16.30;99.90;;;;;;4961273;28;20122;-63
2023/03/30 09:55:32;;;;;;;8.10;1.65;;;16.50;99.90;;;;;;4961731;28;20031;-64
2023/03/30 09:58:10;;;;;;;3.38;1.10;;;16.30;99.90;;;;;;4961194;28;20513;-63
2023/03/30 10:00:36;;;;;;;4.88;1.45;;;15.80;99.90;;;;;;4983670;28;20034;-64
2023/03/30 10:03:05;;;;;;;3.55;1.25;;;15.00;99.90;;;;;;4963149;28;20058;-64
2023/03/30 10:05:33;;;;;;;6.38;1.63;;;13.40;99.90;;;;;;4966586;28;20031;-64
2023/03/30 10:08:18;;;;;;;3.22;1.00;;;12.60;99.90;;;;;;4964742;28;20055;-64
2023/03/30 10:10:44;;;;;;;3.33;0.98;;;11.80;99.90;;;;;;4967095;28;20042;-63
2023/03/30 10:13:15;;;;;;;4.20;0.90;;;11.40;99.90;;;;;;4962029;28;20037;-64
2023/03/30 10:15:44;;;;;;;7.15;1.42;;;11.20;99.90;;;;;;4966574;28;20117;-63
2023/03/30 10:18:28;;;;;;;4.40;1.05;;;10.80;99.90;;;;;;4965105;28;20033;-63
2023/03/30 10:21:02;;;;;;;5.40;1.02;;;10.70;99.90;;;;;;4969599;28;20035;-64
2023/03/30 10:23:38;;;;;;;7.82;0.57;;;10.70;99.90;;;;;;4967144;28;20059;-66
2023/03/30 10:26:07;;;;;;;5.63;0.55;;;10.60;99.90;;;;;;4949872;28;20424;-64
2023/03/30 10:28:35;;;;;;;5.35;1.23;;;10.60;99.90;;;;;;4958365;28;20026;-64
2023/03/30 10:31:06;;;;;;;1.15;0.75;;;10.70;99.90;;;;;;4966797;28;20039;-64
2023/03/30 10:33:39;;;;;;;3.28;1.50;;;10.90;99.90;;;;;;4967820;28;20142;-62
2023/03/30 10:36:06;;;;;;;1.42;0.70;;;11.20;99.90;;;;;;4963888;28;20541;-62
2023/03/30 10:38:33;;;;;;;4.80;0.65;;;11.60;99.90;;;;;;4961366;28;20129;-63
2023/03/30 10:41:21;;;;;;;3.55;1.88;;;11.80;99.90;;;;;;4968785;28;20049;-64
2023/03/30 10:43:48;;;;;;;2.80;0.70;;;11.70;99.90;;;;;;4962360;28;20058;-64
2023/03/30 10:46:18;;;;;;;3.00;0.73;;;11.50;99.90;;;;;;4958672;28;20051;-63
2023/03/30 10:49:03;;;;;;;6.68;1.92;;;11.50;99.90;;;;;;4960452;28;20118;-63
2023/03/30 10:51:52;;;;;;;5.43;0.80;;;11.40;99.90;;;;;;4963847;28;20034;-63
2023/03/30 10:54:31;;;;;;;8.20;1.10;;;11.40;99.90;;;;;;4961324;28;20039;-63
2023/03/30 10:57:08;;;;;;;9.23;2.25;;;11.60;99.90;;;;;;4963403;28;20047;-64
2023/03/30 10:59:36;;;;;;;4.15;2.10;;;11.90;99.90;;;;;;4961050;28;20038;-65
2023/03/30 11:02:11;;;;;;;7.00;1.52;;;12.20;99.90;;;;;;4965792;28;20053;-65
2023/03/30 11:04:43;;;;;;;2.70;1.25;;;12.60;99.90;;;;;;4961823;28;20042;-64
2023/03/30 11:07:29;;;;;;;11.32;5.57;;;13.30;99.90;;;;;;4964198;28;20100;-64
2023/03/30 11:10:03;;;;;;;20.65;7.15;;;13.60;99.90;;;;;;4978223;28;20041;-65
2023/03/30 11:12:33;;;;;;;;;;;14.00;99.90;;;;;;4968221;28;20034;-65
2023/03/30 11:15:03;;;;;;;2.25;1.50;;;14.40;99.90;;;;;;4962437;28;19949;-65
2023/03/30 11:17:40;;;;;;;8.23;3.53;;;14.50;99.90;;;;;;4967802;28;20023;-65
2023/03/30 11:20:26;;;;;;;9.63;2.38;;;14.40;99.90;;;;;;4964319;28;20659;-64
2023/03/30 11:23:19;;;;;;;1.65;0.93;;;14.30;99.90;;;;;;4962218;28;20668;-63
2023/03/30 11:26:04;;;;;;;2.97;1.17;;;14.00;99.90;;;;;;4949015;28;20031;-65
2023/03/30 11:28:41;;;;;;;2.05;1.40;;;13.70;99.90;;;;;;4953817;28;20039;-63
2023/03/30 11:31:39;;;;;;;5.85;1.08;;;13.70;99.90;;;;;;4966406;28;20023;-65
2023/03/30 11:34:11;;;;;;;10.10;1.42;;;13.40;99.90;;;;;;4965923;28;20058;-64
2023/03/30 11:36:49;;;;;;;4.50;1.10;;;13.40;99.90;;;;;;4979949;28;20050;-64
2023/03/30 11:39:23;;;;;;;6.85;1.20;;;13.60;99.90;;;;;;4961448;28;20060;-65
2023/03/30 11:41:58;;;;;;;5.35;1.27;;;13.50;99.90;;;;;;4966189;28;20027;-65
2023/03/30 11:44:24;;;;;;;7.43;1.15;;;13.50;99.90;;;;;;4964800;28;20058;-65
2023/03/30 11:47:19;;;;;;;2.65;1.05;;;13.40;99.90;;;;;;4964936;28;20534;-64
2023/03/30 11:49:47;;;;;;;;;;;13.40;99.90;;;;;;4971177;28;20055;-65
2023/03/30 11:52:23;;;;;;;9.73;2.90;;;13.40;99.90;;;;;;4966164;28;19910;-64
2023/03/30 11:55:00;;;;;;;5.05;1.40;;;13.50;99.90;;;;;;4968689;28;20023;-65
2023/03/30 11:57:50;;;;;;;9.23;2.40;;;13.80;99.90;;;;;;4963536;28;20033;-64
2023/03/30 12:00:42;;;;;;;2.05;1.30;;;13.80;99.90;;;;;;4966136;28;20022;-62
2023/03/30 12:03:35;;;;;;;8.27;1.75;;;13.80;99.90;;;;;;4967868;28;20114;-62
2023/03/30 12:06:22;;;;;;;7.30;1.92;;;14.10;99.90;;;;;;4967975;28;20178;-64
2023/03/30 12:08:51;;;;;;;12.10;4.78;;;14.60;99.90;;;;;;4962419;28;20040;-62
2023/03/30 12:11:31;;;;;;;8.75;1.55;;;14.60;99.90;;;;;;4968246;28;20512;-65
2023/03/30 12:13:57;;;;;;;2.88;1.30;;;14.20;99.90;;;;;;5001827;28;20057;-66
2023/03/30 12:16:36;;;;;;;7.05;2.05;;;14.10;99.90;;;;;;4967920;28;20506;-65
2023/03/30 12:19:31;;;;;;;3.75;1.27;;;14.30;99.90;;;;;;4963554;28;20472;-64
2023/03/30 12:21:56;;;;;;;;;;;14.40;99.90;;;;;;4960013;28;20045;-62
2023/03/30 12:24:46;;;;;;;3.85;1.40;;;14.40;99.90;;;;;;4966428;28;20345;-63
2023/03/30 12:27:12;;;;;;;7.63;2.92;;;14.50;99.90;;;;;;4953911;28;20101;-63
2023/03/30 12:29:46;;;;;;;6.45;2.58;;;14.60;99.90;;;;;;4968745;28;20595;-63
2023/03/30 12:32:23;;;;;;;0.80;0.70;;;14.80;99.90;;;;;;4963723;28;20027;-62
2023/03/30 12:34:49;;;;;;;1.58;0.80;;;14.70;99.90;;;;;;4965240;28;20034;-64
2023/03/30 12:37:36;;;;;;;1.80;1.20;;;14.80;99.90;;;;;;4967550;28;20023;-64
2023/03/30 12:40:11;;;;;;;2.15;1.00;;;15.10;99.90;;;;;;4967811;28;20092;-63
2023/03/30 12:42:44;;;;;;;1.67;0.80;;;15.30;99.90;;;;;;4963950;28;20019;-63
2023/03/30 12:45:20;;;;;;;;;;;15.40;99.90;;;;;;4972452;28;20391;-62
2023/03/30 12:48:13;;;;;;;1.38;1.00;;;15.20;99.90;;;;;;4960750;28;19916;-63
2023/03/30 12:51:15;;;;;;;1.93;1.00;;;15.00;99.90;;;;;;4965886;28;20034;-64
2023/03/30 12:54:00;;;;;;;3.97;1.58;;;15.00;99.90;;;;;;4964014;28;20484;-64
2023/03/30 12:56:50;;;;;;;2.00;1.02;;;15.10;99.90;;;;;;4988384;28;20024;-64
2023/03/30 12:59:28;;;;;;;3.38;1.17;;;15.10;99.90;;;;;;4962735;28;20030;-64
2023/03/30 13:02:07;;;;;;;3.55;1.13;;;15.10;99.90;;;;;;4969604;28;20090;-63
2023/03/30 13:04:38;;;;;;;6.18;1.20;;;14.80;99.90;;;;;;4968853;28;20114;-62
2023/03/30 13:07:23;;;;;;;5.93;1.00;;;14.90;99.90;;;;;;4968390;28;20080;-64
2023/03/30 13:09:54;;;;;;;3.95;0.95;;;15.00;99.90;;;;;;4963151;28;20022;-62
2023/03/30 13:12:26;;;;;;;5.88;1.20;;;15.10;99.90;;;;;;4967806;28;20452;-62